Time;durP1;ratioP1;P1;durP2;ratioP2;P2;SDS_P1;SDS_P2;PMS_P1;PMS_P2;Temp;Humidity;BMP_temperature;BMP_pressure;BME280_temperature;BME280_humidity;BME280_pressure;Samples;Min_cycle;Max_cycle;Signal;HPM_P1;HPM_P2
2020/12/08 00:02:16;;;;;;;17.38;8.73;;;4.40;76.00;;;;;;5052324;28;20469;-47
2020/12/08 00:04:42;;;;;;;19.40;8.98;;;4.40;76.00;;;;;;5032508;28;20500;-46
2020/12/08 00:07:09;;;;;;;16.80;8.60;;;4.20;76.50;;;;;;5044610;28;20068;-48
2020/12/08 00:09:35;;;;;;;17.73;8.43;;;4.20;76.40;;;;;;5053513;28;20481;-47
2020/12/08 00:12:01;;;;;;;17.73;9.13;;;4.20;76.60;;;;;;5037087;28;20038;-51
2020/12/08 00:14:27;;;;;;;17.45;9.32;;;4.20;76.80;;;;;;5046369;28;20143;-48
2020/12/08 00:16:53;;;;;;;17.65;8.82;;;4.10;77.10;;;;;;5036758;28;20080;-46
2020/12/08 00:19:18;;;;;;;19.05;10.02;;;4.10;77.10;;;;;;5037893;28;20041;-49
2020/12/08 00:21:45;;;;;;;18.33;9.25;;;4.20;77.20;;;;;;5046178;28;20040;-47
2020/12/08 00:24:14;;;;;;;18.08;10.25;;;4.20;77.40;;;;;;5047023;28;20053;-50
2020/12/08 00:26:41;;;;;;;17.85;9.48;;;4.30;77.50;;;;;;5033230;28;20025;-46
2020/12/08 00:29:08;;;;;;;18.42;9.95;;;4.40;77.10;;;;;;5032527;28;20026;-44
2020/12/08 00:31:35;;;;;;;18.67;9.45;;;4.40;76.70;;;;;;5039475;28;20091;-45
2020/12/08 00:34:01;;;;;;;18.85;10.65;;;4.40;76.70;;;;;;5034123;28;20041;-48
2020/12/08 00:36:27;;;;;;;19.85;10.10;;;4.40;76.60;;;;;;5050037;28;20114;-47
2020/12/08 00:38:53;;;;;;;18.58;10.45;;;4.40;76.70;;;;;;5034583;28;20142;-45
2020/12/08 00:41:23;;;;;;;20.27;9.70;;;4.40;76.80;;;;;;5035156;28;20385;-45
2020/12/08 00:43:50;;;;;;;18.58;9.80;;;4.40;77.00;;;;;;5051023;28;20029;-44
2020/12/08 00:46:18;;;;;;;18.70;10.27;;;4.40;77.20;;;;;;5033812;28;20026;-45
2020/12/08 00:48:45;;;;;;;20.45;11.35;;;4.50;77.00;;;;;;5036952;28;20037;-46
2020/12/08 00:51:11;;;;;;;19.30;9.82;;;4.40;77.20;;;;;;5048121;28;20061;-45
2020/12/08 00:53:37;;;;;;;20.45;10.82;;;4.40;76.90;;;;;;5054046;28;20060;-46
2020/12/08 00:56:11;;;;;;;19.95;10.48;;;4.40;76.90;;;;;;5047852;28;20064;-44
2020/12/08 00:58:37;;;;;;;20.88;10.32;;;4.30;77.20;;;;;;5045694;28;20546;-49
2020/12/08 01:01:06;;;;;;;23.50;10.57;;;4.30;77.50;;;;;;5041150;28;20029;-47
2020/12/08 01:03:34;;;;;;;22.77;11.25;;;4.20;78.00;;;;;;5033506;28;20030;-49
2020/12/08 01:06:00;;;;;;;23.70;11.27;;;4.20;77.80;;;;;;5032344;28;20104;-49
2020/12/08 01:08:27;;;;;;;23.48;10.35;;;4.30;78.10;;;;;;5050016;28;20044;-47
2020/12/08 01:10:53;;;;;;;20.70;10.85;;;4.30;77.90;;;;;;5035856;28;20068;-46
2020/12/08 01:13:19;;;;;;;21.40;10.85;;;4.30;77.80;;;;;;5033851;28;20037;-50
2020/12/08 01:15:46;;;;;;;23.08;11.45;;;4.40;78.10;;;;;;5032944;28;20067;-46
2020/12/08 01:18:12;;;;;;;19.60;10.43;;;4.40;77.80;;;;;;5038396;28;20136;-48
2020/12/08 01:20:38;;;;;;;24.20;10.77;;;4.50;77.40;;;;;;5035533;28;20124;-45
2020/12/08 01:23:04;;;;;;;22.52;11.00;;;4.40;77.40;;;;;;5033147;28;20033;-48
2020/12/08 01:25:31;;;;;;;21.58;10.52;;;4.40;77.60;;;;;;5036530;28;20082;-48
2020/12/08 01:27:57;;;;;;;20.17;10.00;;;4.40;77.80;;;;;;5041402;28;20481;-46
2020/12/08 01:30:23;;;;;;;21.30;10.57;;;4.40;77.30;;;;;;5039576;28;20171;-48
2020/12/08 01:32:49;;;;;;;20.92;11.07;;;4.30;77.30;;;;;;5052667;28;20043;-49
2020/12/08 01:35:17;;;;;;;22.05;11.23;;;4.30;77.50;;;;;;5037511;28;20443;-50
2020/12/08 01:37:44;;;;;;;20.35;11.15;;;4.20;77.80;;;;;;5041186;28;20031;-51
2020/12/08 01:40:10;;;;;;;20.02;11.25;;;4.10;78.10;;;;;;5049849;28;20040;-49
2020/12/08 01:42:36;;;;;;;19.98;10.73;;;4.10;78.30;;;;;;5045933;28;20032;-50
2020/12/08 01:45:03;;;;;;;19.88;10.23;;;4.00;78.40;;;;;;5035993;28;20508;-48
2020/12/08 01:47:29;;;;;;;23.42;10.88;;;4.00;78.40;;;;;;5030937;28;20385;-44
2020/12/08 01:49:55;;;;;;;21.00;10.32;;;3.90;78.60;;;;;;5032775;28;20029;-44
2020/12/08 01:52:21;;;;;;;18.83;9.73;;;3.70;79.10;;;;;;5032776;28;20083;-45
2020/12/08 01:54:50;;;;;;;18.67;9.82;;;3.70;79.20;;;;;;5032753;28;20040;-51
2020/12/08 01:57:16;;;;;;;19.45;10.13;;;3.80;79.30;;;;;;5032950;28;20060;-49
2020/12/08 01:59:42;;;;;;;18.10;9.57;;;3.90;78.90;;;;;;5037089;28;20177;-46
2020/12/08 02:02:08;;;;;;;19.05;10.10;;;4.00;78.60;;;;;;5032562;28;20120;-45
2020/12/08 02:04:35;;;;;;;19.33;10.13;;;4.10;78.30;;;;;;5032233;28;20064;-46
2020/12/08 02:07:01;;;;;;;16.55;9.60;;;4.10;78.20;;;;;;5032318;28;20404;-47
2020/12/08 02:09:27;;;;;;;19.88;9.95;;;4.10;78.10;;;;;;5018720;28;20034;-46
2020/12/08 02:11:53;;;;;;;19.42;9.70;;;4.10;77.60;;;;;;5032173;28;20485;-45
2020/12/08 02:14:19;;;;;;;19.63;9.73;;;4.10;77.60;;;;;;5043392;28;20049;-46
2020/12/08 02:16:44;;;;;;;16.73;8.93;;;4.20;77.40;;;;;;5035143;28;20106;-46
2020/12/08 02:19:10;;;;;;;16.48;8.95;;;4.20;77.30;;;;;;5031750;28;20052;-46
2020/12/08 02:21:36;;;;;;;17.50;8.63;;;4.20;77.00;;;;;;5032041;28;20055;-48
2020/12/08 02:24:02;;;;;;;15.10;7.95;;;4.20;76.80;;;;;;5040064;28;20404;-44
2020/12/08 02:26:28;;;;;;;20.25;8.70;;;4.20;77.00;;;;;;5043142;28;20485;-44
2020/12/08 02:28:54;;;;;;;13.75;7.72;;;4.10;77.40;;;;;;5031711;28;20044;-48
2020/12/08 02:31:21;;;;;;;13.10;7.20;;;4.00;77.60;;;;;;5041041;28;20028;-50
2020/12/08 02:33:47;;;;;;;12.60;7.15;;;4.10;77.20;;;;;;5047352;28;20072;-48
2020/12/08 02:36:14;;;;;;;14.77;6.75;;;4.10;77.40;;;;;;5032075;28;20037;-49
2020/12/08 02:38:39;;;;;;;14.80;7.43;;;4.20;77.80;;;;;;5031080;28;20044;-49
2020/12/08 02:41:05;;;;;;;17.45;7.63;;;4.20;77.70;;;;;;5031607;28;20057;-45
2020/12/08 02:43:31;;;;;;;15.85;7.93;;;4.20;77.10;;;;;;5032394;28;20378;-47
2020/12/08 02:45:58;;;;;;;14.27;7.75;;;4.20;77.30;;;;;;5030268;28;20061;-50
2020/12/08 02:48:24;;;;;;;13.88;6.97;;;4.20;77.50;;;;;;5042485;28;20122;-47
2020/12/08 02:50:50;;;;;;;12.40;6.72;;;4.20;77.60;;;;;;5050882;28;20478;-47
2020/12/08 02:53:16;;;;;;;13.73;7.97;;;4.30;77.30;;;;;;5050947;28;20120;-45
2020/12/08 02:55:46;;;;;;;18.05;8.18;;;4.30;77.20;;;;;;5050485;28;20036;-47
2020/12/08 02:58:11;;;;;;;13.88;7.38;;;4.20;77.20;;;;;;5052750;28;20037;-46
2020/12/08 03:00:37;;;;;;;15.60;7.95;;;4.20;77.40;;;;;;5051488;28;20103;-45
2020/12/08 03:03:03;;;;;;;13.70;7.03;;;4.20;77.30;;;;;;5039476;28;20064;-47
2020/12/08 03:05:29;;;;;;;11.55;6.28;;;4.10;77.10;;;;;;5035323;28;20033;-50
2020/12/08 03:07:55;;;;;;;10.60;6.40;;;4.00;77.10;;;;;;5048282;28;20065;-51
2020/12/08 03:10:20;;;;;;;12.63;6.70;;;4.00;77.40;;;;;;5055790;28;20037;-51
2020/12/08 03:12:46;;;;;;;12.88;6.53;;;4.00;77.60;;;;;;5036981;28;20033;-49
2020/12/08 03:15:12;;;;;;;12.98;7.22;;;4.10;77.60;;;;;;5036593;28;20060;-49
2020/12/08 03:17:38;;;;;;;12.95;6.35;;;4.10;77.50;;;;;;5053553;28;20029;-47
2020/12/08 03:20:05;;;;;;;14.00;7.10;;;4.20;77.30;;;;;;5033227;28;20041;-44
2020/12/08 03:22:30;;;;;;;11.10;6.78;;;4.20;77.00;;;;;;5035406;28;20040;-46
2020/12/08 03:24:56;;;;;;;12.18;7.15;;;4.10;77.00;;;;;;5036151;28;20041;-47
2020/12/08 03:27:22;;;;;;;13.90;6.97;;;4.20;77.40;;;;;;5040616;28;20538;-51
2020/12/08 03:29:48;;;;;;;10.95;6.53;;;4.20;77.30;;;;;;5039038;28;20113;-48
2020/12/08 03:32:14;;;;;;;13.93;7.30;;;4.30;77.20;;;;;;5040611;28;20132;-50
2020/12/08 03:34:40;;;;;;;13.98;6.70;;;4.40;76.90;;;;;;5044758;28;20040;-48
2020/12/08 03:37:08;;;;;;;9.52;6.25;;;4.40;76.40;;;;;;5034817;28;20052;-47
2020/12/08 03:39:34;;;;;;;14.38;7.40;;;4.40;76.40;;;;;;5036104;28;20128;-45
2020/12/08 03:42:03;;;;;;;16.00;8.30;;;4.40;76.00;;;;;;5038484;28;20124;-48
2020/12/08 03:44:29;;;;;;;15.95;7.75;;;4.30;76.30;;;;;;5048489;28;20374;-47
2020/12/08 03:46:59;;;;;;;15.73;8.35;;;4.30;76.40;;;;;;5040596;28;20033;-44
2020/12/08 03:49:28;;;;;;;16.52;7.97;;;4.30;76.50;;;;;;5045392;28;20459;-45
2020/12/08 03:51:58;;;;;;;16.17;7.72;;;4.30;76.50;;;;;;5035122;28;20041;-46
2020/12/08 03:54:24;;;;;;;16.75;7.63;;;4.40;76.40;;;;;;5033207;28;20035;-46
2020/12/08 03:56:51;;;;;;;17.58;7.88;;;4.40;76.10;;;;;;5035217;28;20061;-45
2020/12/08 03:59:17;;;;;;;16.23;7.60;;;4.40;76.10;;;;;;5042997;28;20095;-46
2020/12/08 04:01:47;;;;;;;17.25;8.27;;;4.30;75.90;;;;;;5035136;28;20083;-47
2020/12/08 04:04:14;;;;;;;15.73;8.30;;;4.20;76.00;;;;;;5034648;28;20562;-50
2020/12/08 04:06:39;;;;;;;16.00;8.30;;;4.20;76.20;;;;;;5034661;28;20030;-45
2020/12/08 04:09:06;;;;;;;16.40;7.82;;;4.10;76.20;;;;;;5046591;28;20048;-43
2020/12/08 04:11:32;;;;;;;15.70;7.72;;;4.10;76.10;;;;;;5034643;28;20061;-45
2020/12/08 04:14:04;;;;;;;14.88;8.13;;;4.00;76.00;;;;;;5037916;28;20668;-45
2020/12/08 04:16:32;;;;;;;12.05;7.25;;;3.90;76.30;;;;;;5035473;28;20041;-48
2020/12/08 04:18:58;;;;;;;16.33;8.02;;;3.90;76.60;;;;;;5030244;28;20136;-46
2020/12/08 04:21:26;;;;;;;15.60;7.35;;;3.90;76.70;;;;;;5036649;28;20041;-47
2020/12/08 04:24:00;;;;;;;15.23;7.80;;;3.90;76.50;;;;;;5034214;28;20026;-45
2020/12/08 04:26:27;;;;;;;15.05;8.60;;;3.90;76.50;;;;;;5034510;28;20060;-45
2020/12/08 04:28:53;;;;;;;13.13;7.05;;;3.90;76.40;;;;;;5034714;28;20072;-45
2020/12/08 04:31:19;;;;;;;14.82;7.20;;;3.80;76.20;;;;;;5043614;28;20500;-48
2020/12/08 04:33:45;;;;;;;17.02;8.00;;;3.70;76.30;;;;;;5048165;28;20036;-46
2020/12/08 04:36:23;;;;;;;16.77;7.88;;;3.70;76.20;;;;;;5051775;28;20044;-46
2020/12/08 04:38:49;;;;;;;14.77;7.57;;;3.50;76.90;;;;;;5027510;28;20044;-45
2020/12/08 04:41:22;;;;;;;16.05;7.50;;;3.40;77.10;;;;;;5040265;28;20481;-48
2020/12/08 04:43:50;;;;;;;13.68;7.55;;;3.30;77.30;;;;;;5050164;28;20126;-45
2020/12/08 04:46:21;;;;;;;14.23;7.97;;;3.30;77.30;;;;;;5053714;28;20029;-45
2020/12/08 04:48:49;;;;;;;14.68;7.70;;;3.30;77.50;;;;;;5046704;28;20041;-43
2020/12/08 04:51:15;;;;;;;16.00;8.07;;;3.30;77.70;;;;;;5034039;28;20083;-45
2020/12/08 04:53:41;;;;;;;14.80;8.13;;;3.30;77.70;;;;;;5034614;28;20034;-44
2020/12/08 04:56:07;;;;;;;15.55;7.75;;;3.30;77.80;;;;;;5032514;28;20059;-48
2020/12/08 04:58:33;;;;;;;18.00;8.10;;;3.30;77.90;;;;;;5037519;28;20126;-45
2020/12/08 05:00:59;;;;;;;17.20;8.40;;;3.30;78.00;;;;;;5035680;28;20037;-45
2020/12/08 05:03:27;;;;;;;17.15;8.80;;;3.40;77.60;;;;;;5047027;28;20064;-46
2020/12/08 05:05:53;;;;;;;15.35;8.13;;;3.40;77.50;;;;;;5034064;28;20045;-48
2020/12/08 05:08:19;;;;;;;21.75;9.32;;;3.40;77.50;;;;;;5040481;28;20040;-48
2020/12/08 05:10:46;;;;;;;17.73;8.85;;;3.50;77.30;;;;;;5040219;28;20037;-44
2020/12/08 05:13:19;;;;;;;20.17;9.77;;;3.50;77.20;;;;;;5038631;28;20650;-44
2020/12/08 05:16:01;;;;;;;21.05;9.38;;;3.50;77.40;;;;;;5045965;28;20076;-45
2020/12/08 05:18:27;;;;;;;19.73;9.20;;;3.50;77.40;;;;;;5032658;28;20216;-48
2020/12/08 05:20:52;;;;;;;18.88;9.45;;;3.50;77.20;;;;;;5033287;28;20533;-45
2020/12/08 05:23:18;;;;;;;21.77;9.75;;;3.40;77.20;;;;;;5035456;28;20030;-45
2020/12/08 05:25:47;;;;;;;21.10;10.35;;;3.40;77.30;;;;;;5052742;28;20116;-46
2020/12/08 05:28:19;;;;;;;20.30;9.57;;;3.40;77.10;;;;;;5038327;28;20115;-48
2020/12/08 05:30:46;;;;;;;18.13;8.75;;;3.40;77.10;;;;;;5037174;28;20036;-49
2020/12/08 05:33:17;;;;;;;15.63;8.25;;;3.30;77.00;;;;;;5049517;28;20112;-48
2020/12/08 05:35:45;;;;;;;17.83;8.90;;;3.30;76.70;;;;;;5031707;28;20445;-47
2020/12/08 05:38:21;;;;;;;15.85;8.20;;;3.20;77.10;;;;;;5032943;28;20523;-46
2020/12/08 05:40:51;;;;;;;19.33;8.90;;;3.20;77.10;;;;;;5033124;28;20065;-45
2020/12/08 05:43:19;;;;;;;17.85;8.77;;;3.20;76.40;;;;;;5033836;28;20034;-51
2020/12/08 05:45:49;;;;;;;20.33;9.35;;;3.20;76.20;;;;;;5045012;28;20033;-49
2020/12/08 05:48:21;;;;;;;21.30;9.52;;;3.00;76.60;;;;;;5031326;28;20044;-46
2020/12/08 05:50:47;;;;;;;15.73;8.55;;;2.90;76.90;;;;;;5035377;28;20063;-44
2020/12/08 05:53:19;;;;;;;18.15;8.95;;;2.80;77.00;;;;;;5032419;28;20112;-45
2020/12/08 05:55:45;;;;;;;18.88;9.02;;;2.80;77.30;;;;;;5044289;28;20033;-49
2020/12/08 05:58:12;;;;;;;17.77;8.75;;;2.80;77.30;;;;;;5038331;28;20030;-45
2020/12/08 06:00:39;;;;;;;19.70;8.50;;;2.80;77.10;;;;;;5032611;28;20059;-45
2020/12/08 06:03:16;;;;;;;17.88;7.85;;;2.70;77.20;;;;;;5032537;28;20558;-44
2020/12/08 06:05:44;;;;;;;16.55;8.20;;;2.70;77.10;;;;;;5034117;28;20041;-45
2020/12/08 06:08:15;;;;;;;18.25;8.20;;;2.70;77.00;;;;;;5051446;28;20072;-51
2020/12/08 06:10:52;;;;;;;18.55;9.20;;;2.70;77.20;;;;;;5032828;28;20489;-48
2020/12/08 06:13:34;;;;;;;16.60;8.27;;;2.80;77.00;;;;;;5030800;28;20038;-49
2020/12/08 06:16:12;;;;;;;15.88;7.80;;;2.70;76.70;;;;;;5042039;28;20397;-48
2020/12/08 06:18:39;;;;;;;17.30;8.00;;;2.70;76.90;;;;;;5035934;28;20037;-48
2020/12/08 06:21:16;;;;;;;17.40;8.30;;;2.70;76.50;;;;;;5035717;28;20033;-46
2020/12/08 06:23:44;;;;;;;17.20;8.27;;;2.60;77.00;;;;;;5032678;28;20029;-47
2020/12/08 06:26:10;;;;;;;15.50;8.23;;;2.60;76.70;;;;;;5031150;28;20404;-45
2020/12/08 06:28:36;;;;;;;18.33;8.77;;;2.60;76.70;;;;;;5047865;28;20037;-48
2020/12/08 06:31:03;;;;;;;19.10;8.45;;;2.60;76.90;;;;;;5047701;28;20071;-50
2020/12/08 06:33:30;;;;;;;19.10;8.52;;;2.60;77.00;;;;;;5047182;28;20498;-47
2020/12/08 06:36:00;;;;;;;19.10;9.43;;;2.50;76.80;;;;;;5032052;28;20056;-44
2020/12/08 06:38:26;;;;;;;18.67;8.52;;;2.50;76.90;;;;;;5032159;28;20030;-45
2020/12/08 06:40:53;;;;;;;14.35;7.07;;;2.50;76.80;;;;;;5032479;28;20152;-46
2020/12/08 06:43:19;;;;;;;17.45;8.57;;;2.40;76.90;;;;;;5032457;28;20520;-47
2020/12/08 06:45:45;;;;;;;15.05;7.28;;;2.40;76.50;;;;;;5039744;28;20082;-45
2020/12/08 06:48:18;;;;;;;13.95;7.38;;;2.30;76.40;;;;;;5051243;28;20633;-46
2020/12/08 06:50:45;;;;;;;14.15;7.05;;;2.20;76.70;;;;;;5044180;28;20603;-45
2020/12/08 06:53:10;;;;;;;15.05;7.25;;;2.10;77.00;;;;;;5039957;28;20064;-47
2020/12/08 06:55:49;;;;;;;15.60;8.05;;;2.00;77.00;;;;;;5049032;28;20060;-45
2020/12/08 06:58:15;;;;;;;16.83;8.32;;;1.80;77.50;;;;;;5037993;28;20034;-47
2020/12/08 07:00:44;;;;;;;17.17;8.00;;;1.70;78.10;;;;;;5034985;28;20033;-46
2020/12/08 07:03:11;;;;;;;15.23;7.85;;;1.70;78.10;;;;;;5047416;28;20037;-45
2020/12/08 07:05:37;;;;;;;15.82;7.93;;;1.70;78.50;;;;;;5033125;28;20059;-45
2020/12/08 07:08:05;;;;;;;17.77;7.88;;;1.70;78.90;;;;;;5041754;28;20044;-45
2020/12/08 07:10:39;;;;;;;15.52;7.55;;;1.60;79.30;;;;;;5039912;28;20033;-46
2020/12/08 07:13:15;;;;;;;18.52;7.82;;;1.70;79.30;;;;;;5031882;28;20030;-45
2020/12/08 07:15:43;;;;;;;15.63;8.10;;;1.70;79.30;;;;;;5035492;28;20083;-45
2020/12/08 07:18:10;;;;;;;21.13;7.70;;;1.70;79.30;;;;;;5043825;28;20036;-45
2020/12/08 07:20:41;;;;;;;18.95;9.43;;;1.70;79.30;;;;;;5043921;28;20119;-47
2020/12/08 07:23:10;;;;;;;18.25;8.02;;;1.80;79.50;;;;;;5046248;28;20033;-45
2020/12/08 07:25:36;;;;;;;17.77;8.00;;;1.70;79.80;;;;;;5044571;28;20038;-47
2020/12/08 07:28:03;;;;;;;20.98;9.73;;;1.70;80.20;;;;;;5044914;28;20083;-47
2020/12/08 07:30:31;;;;;;;20.45;8.85;;;1.60;80.60;;;;;;5034812;28;20033;-50
2020/12/08 07:33:09;;;;;;;21.00;9.27;;;1.50;81.00;;;;;;5036693;28;20057;-47
2020/12/08 07:35:36;;;;;;;16.20;8.15;;;1.50;81.50;;;;;;5047802;28;20075;-49
2020/12/08 07:38:03;;;;;;;21.77;9.80;;;1.60;81.50;;;;;;5049886;28;20033;-46
2020/12/08 07:40:34;;;;;;;21.67;10.23;;;1.60;81.30;;;;;;5041210;28;20033;-45
2020/12/08 07:43:00;;;;;;;23.10;9.25;;;1.60;81.50;;;;;;5031314;28;20037;-45
2020/12/08 07:45:26;;;;;;;21.38;9.50;;;1.70;81.80;;;;;;5034011;28;20080;-45
2020/12/08 07:47:58;;;;;;;24.63;9.80;;;1.80;81.60;;;;;;5038580;28;20038;-45
2020/12/08 07:50:33;;;;;;;19.85;8.55;;;2.20;80.60;;;;;;5034696;28;20041;-48
2020/12/08 07:53:01;;;;;;;26.20;10.43;;;2.30;79.80;;;;;;5052362;28;20041;-45
2020/12/08 07:55:36;;;;;;;24.90;9.75;;;2.40;79.30;;;;;;5034899;28;20117;-46
2020/12/08 07:58:02;;;;;;;22.45;9.90;;;2.40;78.90;;;;;;5035075;28;20163;-47
2020/12/08 08:00:28;;;;;;;20.40;9.57;;;2.50;78.20;;;;;;5042037;28;20041;-43
2020/12/08 08:02:54;;;;;;;21.85;8.98;;;2.50;78.30;;;;;;5035770;28;20044;-48
2020/12/08 08:05:19;;;;;;;19.63;8.68;;;2.40;78.30;;;;;;5034299;28;20029;-44
2020/12/08 08:07:45;;;;;;;17.90;7.90;;;2.40;78.80;;;;;;5038492;28;20031;-43
2020/12/08 08:10:11;;;;;;;20.08;9.07;;;2.30;78.50;;;;;;5048850;28;20433;-44
2020/12/08 08:12:37;;;;;;;18.65;7.90;;;2.30;78.90;;;;;;5033244;28;20493;-41
2020/12/08 08:15:04;;;;;;;22.33;10.25;;;2.40;78.30;;;;;;5052356;28;20048;-41
2020/12/08 08:17:30;;;;;;;18.27;8.07;;;2.40;78.10;;;;;;5041832;28;20436;-41
2020/12/08 08:19:57;;;;;;;18.63;7.82;;;2.50;77.50;;;;;;5034260;28;20077;-41
2020/12/08 08:22:23;;;;;;;18.35;7.93;;;2.40;77.20;;;;;;5045621;28;20034;-44
2020/12/08 08:24:49;;;;;;;19.25;7.75;;;2.40;77.30;;;;;;5046936;28;20076;-43
2020/12/08 08:27:14;;;;;;;20.33;7.93;;;2.60;77.20;;;;;;5040950;28;20492;-44
2020/12/08 08:29:40;;;;;;;20.08;8.35;;;2.50;77.10;;;;;;5034502;28;20032;-43
2020/12/08 08:32:06;;;;;;;19.35;8.50;;;2.50;77.00;;;;;;5037710;28;20048;-45
2020/12/08 08:34:32;;;;;;;16.25;7.57;;;2.50;77.30;;;;;;5042305;28;20059;-46
2020/12/08 08:36:58;;;;;;;20.33;7.90;;;2.60;77.10;;;;;;5038905;28;20124;-44
2020/12/08 08:39:24;;;;;;;20.00;7.95;;;2.60;77.10;;;;;;5034960;28;20091;-44
2020/12/08 08:41:53;;;;;;;19.40;7.43;;;2.70;76.90;;;;;;5038517;28;20033;-45
2020/12/08 08:44:19;;;;;;;22.35;8.93;;;2.70;77.10;;;;;;5036385;28;20024;-45
2020/12/08 08:46:45;;;;;;;22.58;9.23;;;2.60;77.50;;;;;;5033843;28;20124;-43
2020/12/08 08:49:14;;;;;;;21.38;9.02;;;2.50;77.70;;;;;;5034155;28;20029;-48
2020/12/08 08:51:49;;;;;;;20.50;8.20;;;2.60;77.80;;;;;;5034131;28;20037;-43
2020/12/08 08:54:17;;;;;;;19.55;8.60;;;2.60;77.80;;;;;;5032826;28;20061;-44
2020/12/08 08:56:43;;;;;;;20.55;9.05;;;2.70;77.30;;;;;;5036329;28;20052;-46
2020/12/08 08:59:10;;;;;;;22.02;9.48;;;2.70;77.30;;;;;;5047221;28;20033;-43
2020/12/08 09:01:36;;;;;;;25.00;9.73;;;2.70;77.40;;;;;;5035540;28;20334;-42
2020/12/08 09:04:03;;;;;;;20.63;8.63;;;2.70;77.50;;;;;;5041660;28;20037;-46
2020/12/08 09:06:29;;;;;;;23.15;9.18;;;2.80;77.50;;;;;;5036210;28;20041;-42
2020/12/08 09:08:55;;;;;;;23.00;10.18;;;2.70;77.70;;;;;;5046814;28;20116;-44
2020/12/08 09:11:21;;;;;;;23.77;9.23;;;2.70;77.80;;;;;;5045614;28;20179;-44
2020/12/08 09:13:48;;;;;;;28.13;10.18;;;2.70;77.90;;;;;;5042892;28;20040;-42
2020/12/08 09:16:14;;;;;;;23.05;8.82;;;2.80;78.00;;;;;;5040171;28;20049;-44
2020/12/08 09:18:40;;;;;;;25.10;10.43;;;2.80;77.80;;;;;;5053502;28;20044;-44
2020/12/08 09:21:06;;;;;;;24.35;9.75;;;2.80;78.00;;;;;;5053579;28;20028;-50
2020/12/08 09:23:32;;;;;;;25.58;10.30;;;2.90;77.40;;;;;;5053000;28;20029;-48
2020/12/08 09:25:58;;;;;;;24.67;9.18;;;2.70;77.70;;;;;;5051967;28;20123;-52
2020/12/08 09:28:26;;;;;;;26.45;10.70;;;2.70;78.00;;;;;;5052920;28;20072;-50
2020/12/08 09:30:52;;;;;;;27.35;10.65;;;2.80;78.20;;;;;;5053499;28;20033;-45
2020/12/08 09:33:19;;;;;;;26.10;10.65;;;3.00;77.50;;;;;;5053306;28;20033;-46
2020/12/08 09:35:45;;;;;;;26.95;11.77;;;3.00;77.60;;;;;;5052966;28;20032;-45
2020/12/08 09:38:11;;;;;;;26.55;10.55;;;3.00;77.50;;;;;;5052052;28;20577;-45
2020/12/08 09:40:38;;;;;;;30.52;11.43;;;3.10;77.80;;;;;;5051357;28;20060;-48
2020/12/08 09:43:04;;;;;;;29.98;11.65;;;3.40;77.30;;;;;;5035923;28;20382;-48
2020/12/08 09:45:31;;;;;;;27.17;11.57;;;3.70;76.30;;;;;;5032770;28;20539;-45
2020/12/08 09:47:57;;;;;;;28.35;12.07;;;3.70;76.00;;;;;;5032930;28;20064;-43
2020/12/08 09:50:24;;;;;;;29.20;10.93;;;3.70;76.10;;;;;;5032861;28;20041;-44
2020/12/08 09:52:49;;;;;;;29.20;11.43;;;3.90;75.50;;;;;;5033087;28;20528;-45
2020/12/08 09:55:15;;;;;;;28.60;11.60;;;3.80;75.30;;;;;;5031792;28;20068;-45
2020/12/08 09:57:41;;;;;;;30.45;11.45;;;3.90;75.10;;;;;;5032787;28;20033;-47
2020/12/08 10:00:07;;;;;;;27.90;10.40;;;4.10;74.80;;;;;;5032796;28;20490;-45
2020/12/08 10:02:34;;;;;;;25.13;10.35;;;4.20;74.00;;;;;;5033041;28;20033;-45
2020/12/08 10:05:00;;;;;;;25.98;11.20;;;4.30;73.90;;;;;;5032926;28;20033;-46
2020/12/08 10:07:26;;;;;;;26.02;10.27;;;4.60;73.00;;;;;;5034384;28;20030;-44
2020/12/08 10:09:52;;;;;;;25.02;10.07;;;4.40;73.00;;;;;;5051327;28;20061;-44
2020/12/08 10:12:18;;;;;;;26.10;11.43;;;4.40;72.90;;;;;;5051086;28;20519;-43
2020/12/08 10:14:45;;;;;;;28.83;11.63;;;4.40;73.30;;;;;;5052477;28;20053;-43
2020/12/08 10:17:11;;;;;;;27.90;11.77;;;4.50;73.50;;;;;;5052508;28;20059;-43
2020/12/08 10:19:38;;;;;;;27.13;11.10;;;4.50;73.40;;;;;;5052333;28;20157;-45
2020/12/08 10:22:05;;;;;;;26.95;12.02;;;4.30;73.80;;;;;;5052531;28;20028;-46
2020/12/08 10:24:30;;;;;;;28.70;11.10;;;4.40;73.80;;;;;;5052229;28;20553;-48
2020/12/08 10:26:56;;;;;;;42.20;13.65;;;4.40;74.00;;;;;;5052216;28;20120;-46
2020/12/08 10:29:22;;;;;;;28.60;11.57;;;4.40;73.80;;;;;;5052082;28;20041;-46
2020/12/08 10:31:51;;;;;;;26.55;12.18;;;4.40;74.10;;;;;;5052406;28;20489;-46
2020/12/08 10:34:19;;;;;;;24.20;10.50;;;4.20;73.80;;;;;;5052151;28;20044;-49
2020/12/08 10:36:46;;;;;;;23.63;10.40;;;4.20;74.10;;;;;;5052178;28;20468;-44
2020/12/08 10:39:13;;;;;;;27.00;11.90;;;4.10;74.50;;;;;;5052079;28;20064;-44
2020/12/08 10:41:38;;;;;;;27.73;11.20;;;4.00;74.70;;;;;;5045690;28;20116;-47
2020/12/08 10:44:06;;;;;;;26.98;12.55;;;4.10;74.90;;;;;;5032515;28;20120;-47
2020/12/08 10:46:36;;;;;;;27.25;11.55;;;4.10;74.70;;;;;;5031931;28;20037;-44
2020/12/08 10:49:05;;;;;;;27.38;11.57;;;4.20;74.50;;;;;;5032318;28;20040;-46
2020/12/08 10:51:31;;;;;;;26.75;11.25;;;4.10;74.60;;;;;;5032018;28;20478;-44
2020/12/08 10:53:57;;;;;;;22.52;10.02;;;4.20;74.70;;;;;;5032208;28;20044;-45
2020/12/08 10:56:24;;;;;;;25.85;10.35;;;4.20;74.60;;;;;;5032041;28;20068;-44
2020/12/08 10:58:52;;;;;;;25.30;10.27;;;4.20;74.30;;;;;;5036328;28;20472;-45
2020/12/08 11:01:24;;;;;;;26.15;11.20;;;4.20;74.60;;;;;;5048692;28;20089;-45
2020/12/08 11:03:51;;;;;;;22.90;9.07;;;4.20;75.00;;;;;;5048795;28;20033;-43
2020/12/08 11:06:24;;;;;;;24.05;9.95;;;4.40;74.40;;;;;;5046743;28;20036;-45
2020/12/08 11:08:51;;;;;;;23.00;9.27;;;4.40;74.00;;;;;;5059588;28;20029;-42
2020/12/08 11:11:29;;;;;;;25.75;10.30;;;4.60;74.00;;;;;;5061539;28;20033;-46
2020/12/08 11:13:56;;;;;;;22.02;9.68;;;4.60;73.90;;;;;;5055249;28;20155;-45
2020/12/08 11:16:23;;;;;;;24.63;11.00;;;4.70;73.50;;;;;;5054758;28;20024;-43
2020/12/08 11:18:49;;;;;;;23.98;10.38;;;4.80;73.60;;;;;;5057079;28;20527;-42
2020/12/08 11:21:23;;;;;;;23.58;9.52;;;4.90;73.30;;;;;;5061203;28;20388;-46
2020/12/08 11:23:49;;;;;;;23.05;10.10;;;5.00;73.20;;;;;;5061145;28;20094;-45
2020/12/08 11:26:15;;;;;;;23.17;10.10;;;5.00;73.20;;;;;;5062945;28;20029;-45
2020/12/08 11:28:41;;;;;;;21.73;8.82;;;5.10;73.10;;;;;;5059050;28;20102;-44
2020/12/08 11:31:07;;;;;;;19.52;9.35;;;5.10;73.00;;;;;;5060784;28;20057;-45
2020/12/08 11:33:33;;;;;;;21.35;10.52;;;5.20;72.50;;;;;;5060881;28;20033;-47
2020/12/08 11:35:59;;;;;;;20.13;9.55;;;5.20;72.70;;;;;;5061649;28;20492;-47
2020/12/08 11:38:25;;;;;;;21.88;10.20;;;5.20;72.40;;;;;;5061145;28;20045;-46
2020/12/08 11:40:51;;;;;;;21.25;9.73;;;5.20;72.50;;;;;;5059478;28;20033;-47
2020/12/08 11:43:17;;;;;;;23.70;10.18;;;5.30;72.50;;;;;;5039608;28;20477;-47
2020/12/08 11:45:43;;;;;;;24.80;10.40;;;5.30;72.40;;;;;;5035708;28;20053;-48
2020/12/08 11:48:09;;;;;;;21.20;10.00;;;5.40;72.20;;;;;;5037243;28;20029;-45
2020/12/08 11:50:35;;;;;;;22.35;9.68;;;5.40;72.10;;;;;;5037233;28;20030;-49
2020/12/08 11:53:00;;;;;;;20.95;9.90;;;5.50;72.30;;;;;;5036614;28;20041;-46
2020/12/08 11:55:26;;;;;;;22.73;10.45;;;5.50;72.10;;;;;;5035669;28;20029;-47
2020/12/08 11:57:52;;;;;;;21.58;10.18;;;5.50;71.90;;;;;;5035967;28;20098;-47
2020/12/08 12:00:18;;;;;;;22.77;11.25;;;5.60;71.60;;;;;;5034459;28;20499;-44
2020/12/08 12:02:44;;;;;;;20.55;10.18;;;5.60;71.40;;;;;;5035089;28;20116;-44
2020/12/08 12:05:10;;;;;;;21.13;9.32;;;5.60;71.30;;;;;;5034845;28;20167;-44
2020/12/08 12:07:36;;;;;;;23.77;9.85;;;5.70;71.10;;;;;;5037319;28;20036;-44
2020/12/08 12:10:03;;;;;;;25.15;10.50;;;5.60;71.00;;;;;;5054873;28;20029;-47
2020/12/08 12:12:29;;;;;;;23.90;10.77;;;5.70;71.80;;;;;;5053368;28;20500;-44
2020/12/08 12:14:55;;;;;;;22.15;9.82;;;5.70;71.80;;;;;;5053291;28;20049;-46
2020/12/08 12:17:21;;;;;;;24.17;10.25;;;5.80;71.50;;;;;;5054666;28;20145;-46
2020/12/08 12:19:46;;;;;;;23.85;11.02;;;5.70;71.50;;;;;;5054585;28;20412;-47
2020/12/08 12:22:12;;;;;;;24.40;10.38;;;5.80;71.60;;;;;;5054607;28;20503;-45
2020/12/08 12:24:38;;;;;;;23.25;10.18;;;5.90;71.10;;;;;;5054668;28;20036;-45
2020/12/08 12:27:04;;;;;;;23.73;10.45;;;5.90;70.80;;;;;;5054590;28;20044;-44
2020/12/08 12:29:31;;;;;;;22.85;10.80;;;5.90;70.80;;;;;;5054135;28;20028;-45
2020/12/08 12:31:57;;;;;;;25.05;11.38;;;5.90;70.80;;;;;;5054670;28;20029;-44
2020/12/08 12:34:23;;;;;;;26.52;11.40;;;5.90;71.00;;;;;;5053140;28;20086;-45
2020/12/08 12:36:50;;;;;;;25.90;10.63;;;5.70;71.40;;;;;;5054518;28;20029;-44
2020/12/08 12:39:17;;;;;;;23.15;10.27;;;5.70;71.20;;;;;;5054457;28;20094;-46
2020/12/08 12:41:43;;;;;;;23.05;10.88;;;5.70;71.00;;;;;;5048183;28;20038;-48
2020/12/08 12:44:09;;;;;;;26.45;11.52;;;5.70;71.00;;;;;;5034389;28;20041;-45